Flight Track Log - Related Links

Times and Time Zones

All times are in EDT time to prevent confusion due to time zone crossing. See the VHT11 flight status page for this flight to view local times or setup timezone preferences in your user account.


Time Position Orientation Groundspeed Altitude Reporting Facility
EDT Latitude Longitude Course Direction KTS MPH feet Rate Location/Type
Wed 05:26:44 PM 36.0611 -115.1786 338° Northwest 187 215 3,100  Level Los Angeles Center
Wed 05:27:15 PM 36.0358 -115.1919 203° Southwest 191 220 4,100 1,765 Climbing Los Angeles Center
Wed 05:28:09 PM 35.9994 -115.2333 223° Southwest 208 239 5,600 1,438 Climbing Los Angeles Center
Wed 05:29:16 PM 35.9644 -115.3111 241° Southwest 243 280 7,000 1,525 Climbing Los Angeles Center
Wed 05:30:11 PM 35.9161 -115.3667 223° Southwest 256 295 8,700 1,615 Climbing Los Angeles Center
Wed 05:30:34 PM 35.9072 -115.3778 225° Southwest 247 284 9,100 1,918 Climbing Los Angeles Center
Wed 05:31:48 PM 35.8839 -115.4931 256° West 295 339 11,800 2,584 Climbing Los Angeles Center
Wed 05:32:00 PM 36.7281 -115.4725 338° Northwest  Level Estimated
Wed 05:32:51 PM 35.8892 -115.6503 272° West 361 415 15,000  Level Los Angeles Center
Wed 05:33:53 PM 35.8914 -115.7806 271° West 379 436 17,900 2,903 Climbing Los Angeles Center
Wed 05:34:55 PM 35.8936 -115.9142 271° West 388 447 21,000 2,903 Climbing Los Angeles Center
Wed 05:35:57 PM 35.9481 -116.0347 299° West 391 450 23,900 2,613 Climbing Los Angeles Center
Wed 05:36:59 PM 36.0303 -116.1258 318° Northwest 393 452 26,400 2,177 Climbing Los Angeles Center
Wed 05:38:01 PM 36.1122 -116.2194 317° Northwest 404 465 28,400 1,935 Climbing Los Angeles Center
Wed 05:39:03 PM 36.1986 -116.3189 317° Northwest 415 478 30,400 1,680 Climbing Los Angeles Center
Wed 05:40:06 PM 36.2839 -116.4186 317° Northwest 423 487 31,900 720 Climbing Los Angeles Center
Wed 05:41:08 PM 36.3931 -116.5456 317° Northwest 446 513 31,900  Level Los Angeles Center
Wed 05:42:10 PM 36.4844 -116.6508 317° Northwest 450 518 31,900 484 Level Los Angeles Center
Wed 05:43:12 PM 36.5800 -116.7603 317° Northwest 447 514 32,900 1,016 Climbing Los Angeles Center
Wed 05:44:14 PM 36.6864 -116.8394 329° Northwest 447 514 34,000 532 Climbing Los Angeles Center
Wed 05:45:16 PM 36.7961 -116.9233 329° Northwest 457 526 34,000 968 Level Los Angeles Center
Wed 05:46:18 PM 36.9028 -117.0056 328° Northwest 452 520 36,000 1,957 Climbing Los Angeles Center
Wed 05:46:48 PM 36.9650 -117.0550 328° Northwest 447 514 37,000 1,582 Climbing Oakland Center
Wed 05:47:49 PM 37.0689 -117.1339 329° Northwest 439 505 38,400 1,171 Climbing Oakland Center
Wed 05:48:51 PM 37.1725 -117.2142 328° Northwest 437 503 39,400 829 Climbing Oakland Center
Wed 05:49:52 PM 37.2764 -117.2942 329° Northwest 435 501 40,100 585 Climbing Oakland Center
Wed 05:50:54 PM 37.3828 -117.3661 332° Northwest 434 499 40,600 488 Climbing Oakland Center
Wed 05:51:55 PM 37.4978 -117.4233 338° Northwest 442 509 41,100 492 Climbing Oakland Center
Wed 05:52:56 PM 37.6178 -117.4681 344° North 446 513 41,600 488 Climbing Oakland Center
Wed 05:53:58 PM 37.7378 -117.5144 343° North 448 516 42,100 488 Climbing Oakland Center
Wed 05:54:59 PM 37.8567 -117.5617 343° North 445 512 42,600 439 Climbing Oakland Center
Wed 05:56:01 PM 37.9764 -117.6089 343° North 445 512 43,000 195 Climbing Oakland Center
Wed 05:57:02 PM 38.1208 -117.6669 342° North 448 516 43,000  Level Oakland Center
Wed 05:58:04 PM 38.2414 -117.7144 343° North 449 517 43,000  Level Oakland Center
Wed 05:59:05 PM 38.3619 -117.7625 343° North 451 519 43,000  Level Oakland Center
Wed 06:00:07 PM 38.4825 -117.8106 343° North 450 518 43,000  Level Oakland Center
Wed 06:01:08 PM 38.6025 -117.8592 342° North 450 518 43,000  Level Oakland Center
Wed 06:02:10 PM 38.7233 -117.9094 342° North 452 520 43,000  Level Oakland Center
Wed 06:03:12 PM 38.8431 -117.9572 343° North 452 520 43,000  Level Oakland Center
Wed 06:04:13 PM 38.9617 -118.0064 342° North 450 518 43,000  Level Oakland Center
Wed 06:05:15 PM 39.0803 -118.0558 342° North 449 517 43,000  Level Oakland Center
Wed 06:06:16 PM 39.1983 -118.1031 343° North 448 516 43,000  Level Oakland Center
Wed 06:07:18 PM 39.3397 -118.1622 342° North 448 516 43,000  Level Oakland Center
Wed 06:08:19 PM 39.4564 -118.2103 342° North 445 512 43,000  Level Oakland Center
Wed 06:09:21 PM 39.5731 -118.2592 342° North 446 513 43,000  Level Oakland Center
Wed 06:10:22 PM 39.6894 -118.3078 342° North 444 511 43,000  Level Oakland Center
Wed 06:11:24 PM 39.8064 -118.3567 342° North 445 512 43,000  Level Oakland Center
Wed 06:12:25 PM 39.9239 -118.4053 342° North 446 513 43,000  Level Oakland Center
Wed 06:13:27 PM 40.0644 -118.4661 342° North 446 513 43,000  Level Oakland Center
Wed 06:14:28 PM 40.1817 -118.5156 342° North 446 513 43,000  Level Oakland Center
Wed 06:15:30 PM 40.3014 -118.5686 341° North 455 524 43,000  Level Oakland Center
Wed 06:16:31 PM 40.4194 -118.6192 342° North 449 517 43,000 -78 Level Oakland Center
Wed 06:16:47 PM 40.4547 -118.6331 343° North 448 516 42,900 -77 Descending Salt Lake Center
Wed 06:17:49 PM 40.5708 -118.6808 343° North 453 521 42,900 48 Level Salt Lake Center
Wed 06:18:51 PM 40.7022 -118.7394 341° North 449 517 43,000  Climbing Salt Lake Center
Wed 06:19:53 PM 40.8167 -118.7892 342° North 451 519 42,900  Descending Salt Lake Center
Wed 06:20:55 PM 40.9317 -118.8394 342° North 451 519 43,000 51 Climbing Salt Lake Center
Wed 06:21:51 PM 41.0478 -118.8900 342° North 454 522 43,000 -51 Level Oakland Center
Wed 06:22:52 PM 41.1822 -118.9492 342° North 455 524 42,900  Descending Oakland Center
Wed 06:24:00 PM 41.3169 -119.0072 342° North 455 524 43,000 46 Climbing Salt Lake Center
Wed 06:25:02 PM 41.4314 -119.0575 342° North 453 521 43,000 -48 Level Salt Lake Center
Wed 06:26:04 PM 41.5644 -119.1164 342° North 450 518 42,900  Descending Salt Lake Center
Wed 06:27:06 PM 41.6786 -119.1658 342° North 450 518 43,000 68 Climbing Salt Lake Center
Wed 06:27:32 PM 41.7333 -119.1947 338° Northwest 449 517 43,000 -69 Level Seattle Center
Wed 06:28:33 PM 41.8483 -119.2442 342° North 451 519 42,900 -62 Descending Seattle Center
Wed 06:29:09 PM 41.9253 -119.2792 341° North 450 518 42,900 98 Level Salt Lake Center
Wed 06:29:34 PM 41.9811 -119.3042 342° North 450 518 43,000 70 Climbing Seattle Center
Wed 06:30:35 PM 42.0881 -119.3517 342° North 446 513 43,000 -49 Level Seattle Center
Wed 06:31:36 PM 42.2064 -119.4067 341° North 449 517 42,900  Descending Seattle Center
Wed 06:32:37 PM 42.3261 -119.4600 342° North 451 519 43,000 49 Climbing Seattle Center
Wed 06:33:38 PM 42.4444 -119.5133 342° North 451 519 43,000  Level Seattle Center
Wed 06:34:39 PM 42.5639 -119.5672 342° North 452 520 43,000  Level Seattle Center
Wed 06:35:40 PM 42.6825 -119.6211 342° North 452 520 43,000 -49 Level Seattle Center
Wed 06:36:41 PM 42.8228 -119.6872 341° North 446 513 42,900  Descending Seattle Center
Wed 06:37:42 PM 42.9406 -119.7419 341° North 447 514 43,000  Climbing Seattle Center
Wed 06:38:43 PM 43.0583 -119.7944 342° North 446 513 42,900  Descending Seattle Center
Wed 06:39:44 PM 43.1758 -119.8494 341° North 448 516 43,000 49 Climbing Seattle Center
Wed 06:40:45 PM 43.2933 -119.9042 341° North 447 514 43,000 -49 Level Seattle Center
Wed 06:41:46 PM 43.4069 -119.9578 341° North 452 520 42,900  Descending Seattle Center
Wed 06:42:47 PM 43.5267 -120.0142 341° North 454 522 43,000 49 Climbing Seattle Center
Wed 06:43:48 PM 43.6453 -120.0703 341° North 452 520 43,000  Level Seattle Center
Wed 06:45:00 PM 43.7771 -120.1321 341° North  Level FlightAware Approximate
Wed 06:45:50 PM 43.9053 -120.1947 341° North 450 518 43,000  Level Seattle Center
Wed 06:46:51 PM 44.0225 -120.2506 341° North 447 514 43,000  Level Seattle Center
Wed 06:47:52 PM 44.1394 -120.3078 341° North 447 514 43,000 -49 Level Seattle Center
Wed 06:48:53 PM 44.2564 -120.3636 341° North 445 512 42,900 -49 Descending Seattle Center
Wed 06:49:54 PM 44.3733 -120.4219 340° North 446 513 42,900 49 Level Seattle Center
Wed 06:50:55 PM 44.4917 -120.4786 341° North 452 520 43,000 49 Climbing Seattle Center
Wed 06:51:56 PM 44.6086 -120.5375 340° North 452 520 43,000 -49 Level Seattle Center
Wed 06:52:57 PM 44.7317 -120.5972 341° North 454 522 42,900  Descending Seattle Center
Wed 06:53:59 PM 44.8517 -120.6564 341° North 455 524 43,000  Climbing Seattle Center
Wed 06:54:59 PM 44.9708 -120.7161 340° North 454 522 42,900 -50 Descending Seattle Center
Wed 06:56:00 PM 45.0900 -120.7769 340° North 454 522 42,900  Level Seattle Center
Wed 06:57:01 PM 45.2086 -120.8353 341° North 452 520 42,900  Level Seattle Center
Wed 06:58:02 PM 45.3272 -120.8975 340° North 453 521 42,900  Level Seattle Center
Wed 06:59:03 PM 45.4464 -120.9561 341° North 452 520 42,900 49 Level Seattle Center
Wed 07:00:04 PM 45.5661 -121.0156 341° North 454 522 43,000  Climbing Seattle Center
Wed 07:01:06 PM 45.7083 -121.0886 340° North 454 522 42,900  Descending Seattle Center
Wed 07:02:07 PM 45.8269 -121.1511 340° North 454 522 43,000  Climbing Seattle Center
Wed 07:03:08 PM 45.9458 -121.2122 340° North 453 521 42,900  Descending Seattle Center
Wed 07:04:09 PM 46.0650 -121.2744 340° North 454 522 43,000 49 Climbing Seattle Center
Wed 07:05:10 PM 46.1828 -121.3358 340° North 453 521 43,000  Level Seattle Center
Wed 07:06:11 PM 46.3014 -121.3983 340° North 452 520 43,000 -49 Level Seattle Center
Wed 07:07:12 PM 46.4189 -121.4600 340° North 451 519 42,900  Descending Seattle Center
Wed 07:08:13 PM 46.5378 -121.5242 340° North 454 522 43,000 49 Climbing Seattle Center
Wed 07:09:14 PM 46.6675 -121.5914 340° North 457 526 43,000  Level Seattle Center
Wed 07:10:16 PM 46.7853 -121.6539 340° North 454 522 43,000  Level Seattle Center
Wed 07:11:17 PM 46.9025 -121.7183 339° North 454 522 43,000 -49 Level Seattle Center
Wed 07:12:18 PM 47.0200 -121.7822 340° North 456 525 42,900  Descending Seattle Center
Wed 07:13:19 PM 47.1364 -121.8458 340° North 453 521 43,000  Climbing Seattle Center
Wed 07:14:20 PM 47.2775 -121.9222 340° North 454 522 42,900  Descending Seattle Center
Wed 07:15:21 PM 47.3956 -121.9867 340° North 458 527 43,000 -295 Climbing Seattle Center
Wed 07:16:22 PM 47.5122 -122.0497 340° North 455 524 42,300 -1,279 Descending Seattle Center
Wed 07:17:23 PM 47.6264 -122.1119 340° North 450 518 40,400 -1,918 Descending Seattle Center
Wed 07:18:24 PM 47.7369 -122.1733 340° North 441 507 38,400 -2,016 Descending Seattle Center
Wed 07:19:25 PM 47.8489 -122.2364 339° North 441 507 36,300 -2,951 Descending Seattle Center
Wed 07:20:26 PM 47.9917 -122.3006 343° North 452 520 32,400 -3,689 Descending Seattle Center
Wed 07:21:27 PM 48.1164 -122.3336 350° North 460 529 28,800 -3,689 Descending Seattle Center
Wed 07:22:28 PM 48.2386 -122.3700 349° North 456 525 24,900 -3,984 Descending Seattle Center
Wed 07:23:29 PM 48.3611 -122.4056 349° North 455 524 20,700 -3,836 Descending Seattle Center
Wed 07:24:30 PM 48.4811 -122.4417 349° North 449 517 17,100 -3,590 Descending Seattle Center
Wed 07:25:31 PM 48.5911 -122.4728 349° North 418 481 13,400 -2,508 Descending Seattle Center
Wed 07:26:32 PM 48.6928 -122.5047 348° North 390 449 12,000 -622 Descending Seattle Center
Wed 07:27:46 PM 48.7500 -122.6167 308° West 300 345 12,000 -313 Level Vancouver Center
Wed 07:28:46 PM 48.8000 -122.7167 307° West 260 299 11,300 -950 Descending Vancouver Center
Wed 07:29:46 PM 48.8333 -122.7833 307° West 250 288 10,100 -1,150 Descending Vancouver Center
Wed 07:30:46 PM 48.8833 -122.8833 307° West 250 288 9,000 -900 Descending Vancouver Center
Wed 07:31:46 PM 48.9167 -122.9667 301° West 240 276 8,300 -1,100 Descending Vancouver Center
Wed 07:32:46 PM 48.9833 -123.0167 334° Northwest 240 276 6,800 -1,250 Descending Vancouver Center
Wed 07:33:46 PM 49.0500 -122.9833 18° North 240 276 5,800 -900 Descending Vancouver Center
Wed 07:34:46 PM 49.0500 -122.8833 90° East 220 253 5,000 -900 Descending Vancouver Center
Wed 07:35:46 PM 49.1000 -122.8500 24° Northeast 190 219 4,000 -1,050 Descending Vancouver Center
Wed 07:36:46 PM 49.1167 -122.9333 287° West 190 219 2,900 -1,050 Descending Vancouver Center
Wed 07:37:46 PM 49.1500 -123.0000 307° West 190 219 1,900 -1,000 Descending Vancouver Center

Login

Don't have an account? Register now (free) for customized features, flight alerts, and more!